Ice — ZCOE9 — position and weather

sailwx.info

Track history (hours):
 
Tides and Currents Weather Stations Pressure Air Temp Water Temp Dewpoint Dewpoint Depression Visibility Wind Speed Wind Dir Waves Ship Positions

Ice

Last reported at 2015-May-28 12:29 UTC. Time now 2015-May-28 14:15 UTC.
Position N 53°10' E 008°36'.

Length 90 m; draft 5 m.

Type: Other ship. MMSI: 319411000.

Date/timePositionNaut miles runAvg speedWind from/ knotsBaromVisibWave heightAir tempDewpointWater temp
2015-May-28 12:29N 53°10' E 008°36'0 0.0
2015-May-28 05:28N 53°10' E 008°36'0 0.0
2015-May-28 04:31N 53°10' E 008°36'0 0.0
2015-May-28 03:32N 53°10' E 008°36'0 0.0
2015-May-28 02:33N 53°10' E 008°36'0 0.0
2015-May-28 01:30N 53°10' E 008°36'0 0.0
2015-May-28 00:31N 53°10' E 008°36'0 0.0
2015-May-27 23:32N 53°10' E 008°36'0 0.0
2015-May-27 22:32N 53°10' E 008°36'0 0.0
2015-May-27 21:33N 53°10' E 008°36'0 0.0
2015-May-27 20:28N 53°10' E 008°36'0 0.0
2015-May-27 19:22N 53°10' E 008°36'0 0.0
2015-May-27 18:29N 53°10' E 008°36'0 0.0
2015-May-27 17:30N 53°10' E 008°36'0 0.0
2015-May-27 16:27N 53°10' E 008°36'0 0.0
2015-May-27 15:31N 53°10' E 008°36'0 0.0
2015-May-27 14:32N 53°10' E 008°36'0 0.0
2015-May-27 13:26N 53°10' E 008°36'0 0.0
2015-May-27 12:09N 53°10' E 008°36'0 0.0
2015-May-27 11:22N 53°10' E 008°36'0 0.0
2015-May-27 08:30N 53°10' E 008°36'0 0.0
2015-May-27 07:04N 53°10' E 008°36'0 0.0
2015-May-27 05:32N 53°10' E 008°36'0 0.0
2015-May-27 04:32N 53°10' E 008°36'0 0.0
2015-May-27 03:21N 53°10' E 008°36'0 0.0
2015-May-27 02:28N 53°10' E 008°36'0 0.0
2015-May-27 01:28N 53°10' E 008°36'0 0.0
2015-May-27 00:29N 53°10' E 008°36'0 0.0
2015-May-26 23:30N 53°10' E 008°36'0 0.0
2015-May-26 22:30N 53°10' E 008°36'0 0.0
2015-May-26 21:31N 53°10' E 008°36'0 0.0
2015-May-26 20:32N 53°10' E 008°36'0 0.0
2015-May-26 19:29N 53°10' E 008°36'0 0.0
2015-May-26 18:33N 53°10' E 008°36'0 0.0
2015-May-26 17:31N 53°10' E 008°36'0 0.0
2015-May-26 16:29N 53°10' E 008°36'0 0.0
2015-May-26 15:29N 53°10' E 008°36'0 0.0
2015-May-26 14:18N 53°10' E 008°36'0 0.0
2015-May-26 11:20N 53°10' E 008°36'0 0.4
2015-May-26 10:33N 53°10' E 008°36'1010.1
2015-May-26 09:33N 53°20' E 008°29'9 8.9
2015-May-26 08:34N 53°29' E 008°30'6 5.8
2015-May-26 07:33N 53°23' E 008°30'8 8.1
2015-May-26 06:33N 53°15' E 008°29'6 6.2
2015-May-26 05:33N 53°10' E 008°36'0 0.0
2015-May-26 04:15N 53°10' E 008°36'0 0.0
2015-May-26 03:28N 53°10' E 008°36'0 0.0
2015-May-26 02:29N 53°10' E 008°36'0 0.0
2015-May-26 01:32N 53°10' E 008°36'0 0.0
2015-May-26 00:30N 53°10' E 008°36'0 0.0
2015-May-25 23:31N 53°10' E 008°36'0 0.0
2015-May-25 22:31N 53°10' E 008°36'0 0.0
2015-May-25 21:32N 53°10' E 008°36'0 0.0
2015-May-25 20:33N 53°10' E 008°36'0 0.0
2015-May-25 19:33N 53°10' E 008°36'0 0.0
2015-May-25 18:28N 53°10' E 008°36'0 0.0
2015-May-25 17:14N 53°10' E 008°36'0 0.0
2015-May-25 16:32N 53°10' E 008°36'0 0.0
2015-May-25 14:31N 53°10' E 008°36'0 0.0
2015-May-25 13:31N 53°10' E 008°36'0 0.0
2015-May-25 12:32N 53°10' E 008°36'0 0.0
2015-May-25 11:33N 53°10' E 008°36'0 0.0
2015-May-25 10:33N 53°10' E 008°36'0 0.0
2015-May-25 09:28N 53°10' E 008°36'0 0.0
2015-May-25 08:29N 53°10' E 008°36'0 0.0
2015-May-25 07:29N 53°10' E 008°36'0 0.0
2015-May-25 06:27N 53°10' E 008°36'0 0.0
2015-May-25 04:25N 53°10' E 008°36'0 0.0
2015-May-25 03:26N 53°10' E 008°36'0 0.0
2015-May-25 02:33N 53°10' E 008°36'0 0.0
2015-May-25 01:33N 53°10' E 008°36'0 0.0
2015-May-25 00:25N 53°10' E 008°36'0 0.0
2015-May-24 23:32N 53°10' E 008°36'0 0.0
2015-May-24 22:29N 53°10' E 008°36'0 0.0
2015-May-24 21:30N 53°10' E 008°36'0 0.0
2015-May-24 20:31N 53°10' E 008°36'0 0.0
2015-May-24 19:16N 53°10' E 008°36'0 0.0
2015-May-24 18:17N 53°10' E 008°36'0 0.0
2015-May-24 17:12N 53°10' E 008°36'0 0.0
2015-May-24 13:23N 53°10' E 008°36'0 0.0
2015-May-24 05:29N 53°10' E 008°36'0 0.0
2015-May-24 04:20N 53°10' E 008°36'0 0.0
2015-May-24 03:03N 53°10' E 008°36'0 0.0
2015-May-23 22:33N 53°10' E 008°36'0 0.0
2015-May-23 21:28N 53°10' E 008°36'0 0.0
2015-May-23 20:32N 53°10' E 008°36'0 0.0
2015-May-23 19:29N 53°10' E 008°36'0 0.0
2015-May-23 18:30N 53°10' E 008°36'0 0.0
2015-May-23 14:33N 53°10' E 008°36'0 0.0
2015-May-23 13:33N 53°10' E 008°36'0 0.0
2015-May-23 12:19N 53°10' E 008°36'0 0.0
2015-May-23 11:05N 53°10' E 008°36'0 0.0
2015-May-23 10:23N 53°10' E 008°36'0 0.0
2015-May-23 09:30N 53°10' E 008°36'0 0.0
2015-May-23 08:31N 53°10' E 008°36'0 0.0
2015-May-23 07:31N 53°10' E 008°36'0 0.0
2015-May-23 06:32N 53°10' E 008°36'0 0.0
2015-May-23 05:15N 53°10' E 008°36'0 0.0
2015-May-23 04:24N 53°10' E 008°36'0 0.0
2015-May-23 03:16N 53°10' E 008°36'0 0.0
2015-May-23 02:29N 53°10' E 008°36'0 0.0
2015-May-23 01:29N 53°10' E 008°36'0 0.0
2015-May-23 00:24N 53°10' E 008°36'0 0.0
2015-May-22 23:25N 53°10' E 008°36'0 0.0
2015-May-22 22:31N 53°10' E 008°36'0 0.0
2015-May-22 21:32N 53°10' E 008°36'0 0.0
2015-May-22 20:33N 53°10' E 008°36'0 0.0
2015-May-22 19:33N 53°10' E 008°36'0 0.0
2015-May-22 18:28N 53°10' E 008°36'0 0.0
2015-May-22 17:29N 53°10' E 008°36'0 0.0
2015-May-22 16:24N 53°10' E 008°36'0 0.0
2015-May-22 15:30N 53°10' E 008°36'0 0.0
2015-May-22 14:31N 53°10' E 008°36'0 0.0
2015-May-22 09:28N 53°10' E 008°36'0 0.0
2015-May-22 06:21N 53°10' E 008°36'0 0.0
2015-May-22 05:22N 53°10' E 008°36'0 0.0
2015-May-22 04:14N 53°10' E 008°36'0 0.0
2015-May-22 01:04N 53°10' E 008°36'0 0.0
2015-May-22 00:22N 53°10' E 008°36'0 0.0
2015-May-21 23:32N 53°10' E 008°36'0 0.0
2015-May-21 22:30N 53°10' E 008°36'0 0.0
2015-May-21 21:30N 53°10' E 008°36'0 0.0
2015-May-21 20:28N 53°10' E 008°36'0 0.0
2015-May-21 19:32N 53°10' E 008°36'0 0.0
2015-May-21 16:07N 53°10' E 008°36'0 0.0
2015-May-21 08:06N 53°10' E 008°36'0 0.0
2015-May-21 06:31N 53°10' E 008°36'0 0.0
2015-May-21 05:32N 53°10' E 008°36'0 0.0
2015-May-21 04:27N 53°10' E 008°36'0 0.0
2015-May-21 03:24N 53°10' E 008°36'0 0.0
2015-May-21 02:31N 53°10' E 008°36'0 0.0
2015-May-21 01:32N 53°10' E 008°36'0 0.0
2015-May-21 00:32N 53°10' E 008°36'0 0.0
2015-May-20 23:33N 53°10' E 008°36'0 0.0
2015-May-20 22:31N 53°10' E 008°36'0 0.0
2015-May-20 21:31N 53°10' E 008°36'0 0.0
2015-May-20 20:32N 53°10' E 008°36'0 0.0
2015-May-20 19:33N 53°10' E 008°36'0 0.0
2015-May-20 18:18N 53°10' E 008°36'0 0.0
2015-May-20 17:31N 53°10' E 008°36'0 0.0
2015-May-20 16:32N 53°10' E 008°36'0 0.0
2015-May-20 15:29N 53°10' E 008°36'0 0.0
2015-May-20 14:24N 53°10' E 008°36'0 0.0
2015-May-20 07:32N 53°10' E 008°36'0 0.0
2015-May-20 05:30N 53°10' E 008°36'0 0.0
2015-May-20 04:31N 53°10' E 008°36'0 0.0
2015-May-20 03:19N 53°10' E 008°36'0 0.0
2015-May-20 02:20N 53°10' E 008°36'0 0.0
2015-May-20 01:33N 53°10' E 008°36'0 0.0
2015-May-19 22:11N 53°10' E 008°36'0 0.0
2015-May-19 21:32N 53°10' E 008°36'0 0.0
2015-May-19 20:27N 53°10' E 008°36'0 0.0
2015-May-19 19:28N 53°10' E 008°36'0 0.0
2015-May-19 18:25N 53°10' E 008°36'0 0.0
2015-May-19 17:14N 53°10' E 008°36'0 0.0
2015-May-19 05:31N 53°10' E 008°36'0 0.0
2015-May-19 04:23N 53°10' E 008°36'0 0.0
2015-May-19 03:32N 53°10' E 008°36'0 0.0
2015-May-19 02:33N 53°10' E 008°36'0 0.0
2015-May-19 01:22N 53°10' E 008°36'0 0.0
2015-May-19 00:25N 53°10' E 008°36'0 0.0
2015-May-18 23:14N 53°10' E 008°36'0 0.0
2015-May-18 22:30N 53°10' E 008°36'0 0.0
2015-May-18 21:30N 53°10' E 008°36'0 0.0
2015-May-18 20:31N 53°10' E 008°36'0 0.0
2015-May-18 19:32N 53°10' E 008°36'0 0.0
2015-May-18 18:32N 53°10' E 008°36'0 0.0
2015-May-18 17:33N 53°10' E 008°36'0 0.0
2015-May-18 16:19N 53°10' E 008°36'0 0.0
2015-May-18 15:25N 53°10' E 008°36'  
Track history (hours):
 
Tides and Currents Weather Stations Pressure Air Temp Water Temp Dewpoint Dewpoint Depression Visibility Wind Speed Wind Dir Waves Ship Positions

Ice

Last reported at 2015-May-28 12:29 UTC. Time now 2015-May-28 14:15 UTC.
Position N 53°10' E 008°36'.

Length 90 m; draft 5 m.

Type: Other ship. MMSI: 319411000.

Date/timePositionNaut miles runAvg speedWind from/ knotsBaromVisibWave heightAir tempDewpointWater temp
2015-May-28 12:29N 53°10' E 008°36'0 0.0
2015-May-28 05:28N 53°10' E 008°36'0 0.0
2015-May-28 04:31N 53°10' E 008°36'0 0.0
2015-May-28 03:32N 53°10' E 008°36'0 0.0
2015-May-28 02:33N 53°10' E 008°36'0 0.0
2015-May-28 01:30N 53°10' E 008°36'0 0.0
2015-May-28 00:31N 53°10' E 008°36'0 0.0
2015-May-27 23:32N 53°10' E 008°36'0 0.0
2015-May-27 22:32N 53°10' E 008°36'0 0.0
2015-May-27 21:33N 53°10' E 008°36'0 0.0
2015-May-27 20:28N 53°10' E 008°36'0 0.0
2015-May-27 19:22N 53°10' E 008°36'0 0.0
2015-May-27 18:29N 53°10' E 008°36'0 0.0
2015-May-27 17:30N 53°10' E 008°36'0 0.0
2015-May-27 16:27N 53°10' E 008°36'0 0.0
2015-May-27 15:31N 53°10' E 008°36'0 0.0
2015-May-27 14:32N 53°10' E 008°36'0 0.0
2015-May-27 13:26N 53°10' E 008°36'0 0.0
2015-May-27 12:09N 53°10' E 008°36'0 0.0
2015-May-27 11:22N 53°10' E 008°36'0 0.0
2015-May-27 08:30N 53°10' E 008°36'0 0.0
2015-May-27 07:04N 53°10' E 008°36'0 0.0
2015-May-27 05:32N 53°10' E 008°36'0 0.0
2015-May-27 04:32N 53°10' E 008°36'0 0.0
2015-May-27 03:21N 53°10' E 008°36'0 0.0
2015-May-27 02:28N 53°10' E 008°36'0 0.0
2015-May-27 01:28N 53°10' E 008°36'0 0.0
2015-May-27 00:29N 53°10' E 008°36'0 0.0
2015-May-26 23:30N 53°10' E 008°36'0 0.0
2015-May-26 22:30N 53°10' E 008°36'0 0.0
2015-May-26 21:31N 53°10' E 008°36'0 0.0
2015-May-26 20:32N 53°10' E 008°36'0 0.0
2015-May-26 19:29N 53°10' E 008°36'0 0.0
2015-May-26 18:33N 53°10' E 008°36'0 0.0
2015-May-26 17:31N 53°10' E 008°36'0 0.0
2015-May-26 16:29N 53°10' E 008°36'0 0.0
2015-May-26 15:29N 53°10' E 008°36'0 0.0
2015-May-26 14:18N 53°10' E 008°36'0 0.0
2015-May-26 11:20N 53°10' E 008°36'0 0.4
2015-May-26 10:33N 53°10' E 008°36'1010.1
2015-May-26 09:33N 53°20' E 008°29'9 8.9
2015-May-26 08:34N 53°29' E 008°30'6 5.8
2015-May-26 07:33N 53°23' E 008°30'8 8.1
2015-May-26 06:33N 53°15' E 008°29'6 6.2
2015-May-26 05:33N 53°10' E 008°36'0 0.0
2015-May-26 04:15N 53°10' E 008°36'0 0.0
2015-May-26 03:28N 53°10' E 008°36'0 0.0
2015-May-26 02:29N 53°10' E 008°36'0 0.0
2015-May-26 01:32N 53°10' E 008°36'0 0.0
2015-May-26 00:30N 53°10' E 008°36'0 0.0
2015-May-25 23:31N 53°10' E 008°36'0 0.0
2015-May-25 22:31N 53°10' E 008°36'0 0.0
2015-May-25 21:32N 53°10' E 008°36'0 0.0
2015-May-25 20:33N 53°10' E 008°36'0 0.0
2015-May-25 19:33N 53°10' E 008°36'0 0.0
2015-May-25 18:28N 53°10' E 008°36'0 0.0
2015-May-25 17:14N 53°10' E 008°36'0 0.0
2015-May-25 16:32N 53°10' E 008°36'0 0.0
2015-May-25 14:31N 53°10' E 008°36'0 0.0
2015-May-25 13:31N 53°10' E 008°36'0 0.0
2015-May-25 12:32N 53°10' E 008°36'0 0.0
2015-May-25 11:33N 53°10' E 008°36'0 0.0
2015-May-25 10:33N 53°10' E 008°36'0 0.0
2015-May-25 09:28N 53°10' E 008°36'0 0.0
2015-May-25 08:29N 53°10' E 008°36'0 0.0
2015-May-25 07:29N 53°10' E 008°36'0 0.0
2015-May-25 06:27N 53°10' E 008°36'0 0.0
2015-May-25 04:25N 53°10' E 008°36'0 0.0
2015-May-25 03:26N 53°10' E 008°36'0 0.0
2015-May-25 02:33N 53°10' E 008°36'0 0.0
2015-May-25 01:33N 53°10' E 008°36'0 0.0
2015-May-25 00:25N 53°10' E 008°36'0 0.0
2015-May-24 23:32N 53°10' E 008°36'0 0.0
2015-May-24 22:29N 53°10' E 008°36'0 0.0
2015-May-24 21:30N 53°10' E 008°36'0 0.0
2015-May-24 20:31N 53°10' E 008°36'0 0.0
2015-May-24 19:16N 53°10' E 008°36'0 0.0
2015-May-24 18:17N 53°10' E 008°36'0 0.0
2015-May-24 17:12N 53°10' E 008°36'0 0.0
2015-May-24 13:23N 53°10' E 008°36'0 0.0
2015-May-24 05:29N 53°10' E 008°36'0 0.0
2015-May-24 04:20N 53°10' E 008°36'0 0.0
2015-May-24 03:03N 53°10' E 008°36'0 0.0
2015-May-23 22:33N 53°10' E 008°36'0 0.0
2015-May-23 21:28N 53°10' E 008°36'0 0.0
2015-May-23 20:32N 53°10' E 008°36'0 0.0
2015-May-23 19:29N 53°10' E 008°36'0 0.0
2015-May-23 18:30N 53°10' E 008°36'0 0.0
2015-May-23 14:33N 53°10' E 008°36'0 0.0
2015-May-23 13:33N 53°10' E 008°36'0 0.0
2015-May-23 12:19N 53°10' E 008°36'0 0.0
2015-May-23 11:05N 53°10' E 008°36'0 0.0
2015-May-23 10:23N 53°10' E 008°36'0 0.0
2015-May-23 09:30N 53°10' E 008°36'0 0.0
2015-May-23 08:31N 53°10' E 008°36'0 0.0
2015-May-23 07:31N 53°10' E 008°36'0 0.0
2015-May-23 06:32N 53°10' E 008°36'0 0.0
2015-May-23 05:15N 53°10' E 008°36'0 0.0
2015-May-23 04:24N 53°10' E 008°36'0 0.0
2015-May-23 03:16N 53°10' E 008°36'0 0.0
2015-May-23 02:29N 53°10' E 008°36'0 0.0
2015-May-23 01:29N 53°10' E 008°36'0 0.0
2015-May-23 00:24N 53°10' E 008°36'0 0.0
2015-May-22 23:25N 53°10' E 008°36'0 0.0
2015-May-22 22:31N 53°10' E 008°36'0 0.0
2015-May-22 21:32N 53°10' E 008°36'0 0.0
2015-May-22 20:33N 53°10' E 008°36'0 0.0
2015-May-22 19:33N 53°10' E 008°36'0 0.0
2015-May-22 18:28N 53°10' E 008°36'0 0.0
2015-May-22 17:29N 53°10' E 008°36'0 0.0
2015-May-22 16:24N 53°10' E 008°36'0 0.0
2015-May-22 15:30N 53°10' E 008°36'0 0.0
2015-May-22 14:31N 53°10' E 008°36'0 0.0
2015-May-22 09:28N 53°10' E 008°36'0 0.0
2015-May-22 06:21N 53°10' E 008°36'0 0.0
2015-May-22 05:22N 53°10' E 008°36'0 0.0
2015-May-22 04:14N 53°10' E 008°36'0 0.0
2015-May-22 01:04N 53°10' E 008°36'0 0.0
2015-May-22 00:22N 53°10' E 008°36'0 0.0
2015-May-21 23:32N 53°10' E 008°36'0 0.0
2015-May-21 22:30N 53°10' E 008°36'0 0.0
2015-May-21 21:30N 53°10' E 008°36'0 0.0
2015-May-21 20:28N 53°10' E 008°36'0 0.0
2015-May-21 19:32N 53°10' E 008°36'0 0.0
2015-May-21 16:07N 53°10' E 008°36'0 0.0
2015-May-21 08:06N 53°10' E 008°36'0 0.0
2015-May-21 06:31N 53°10' E 008°36'0 0.0
2015-May-21 05:32N 53°10' E 008°36'0 0.0
2015-May-21 04:27N 53°10' E 008°36'0 0.0
2015-May-21 03:24N 53°10' E 008°36'0 0.0
2015-May-21 02:31N 53°10' E 008°36'0 0.0
2015-May-21 01:32N 53°10' E 008°36'0 0.0
2015-May-21 00:32N 53°10' E 008°36'0 0.0
2015-May-20 23:33N 53°10' E 008°36'0 0.0
2015-May-20 22:31N 53°10' E 008°36'0 0.0
2015-May-20 21:31N 53°10' E 008°36'0 0.0
2015-May-20 20:32N 53°10' E 008°36'0 0.0
2015-May-20 19:33N 53°10' E 008°36'0 0.0
2015-May-20 18:18N 53°10' E 008°36'0 0.0
2015-May-20 17:31N 53°10' E 008°36'0 0.0
2015-May-20 16:32N 53°10' E 008°36'0 0.0
2015-May-20 15:29N 53°10' E 008°36'0 0.0
2015-May-20 14:24N 53°10' E 008°36'0 0.0
2015-May-20 07:32N 53°10' E 008°36'0 0.0
2015-May-20 05:30N 53°10' E 008°36'0 0.0
2015-May-20 04:31N 53°10' E 008°36'0 0.0
2015-May-20 03:19N 53°10' E 008°36'0 0.0
2015-May-20 02:20N 53°10' E 008°36'0 0.0
2015-May-20 01:33N 53°10' E 008°36'0 0.0
2015-May-19 22:11N 53°10' E 008°36'0 0.0
2015-May-19 21:32N 53°10' E 008°36'0 0.0
2015-May-19 20:27N 53°10' E 008°36'0 0.0
2015-May-19 19:28N 53°10' E 008°36'0 0.0
2015-May-19 18:25N 53°10' E 008°36'0 0.0
2015-May-19 17:14N 53°10' E 008°36'0 0.0
2015-May-19 05:31N 53°10' E 008°36'0 0.0
2015-May-19 04:23N 53°10' E 008°36'0 0.0
2015-May-19 03:32N 53°10' E 008°36'0 0.0
2015-May-19 02:33N 53°10' E 008°36'0 0.0
2015-May-19 01:22N 53°10' E 008°36'0 0.0
2015-May-19 00:25N 53°10' E 008°36'0 0.0
2015-May-18 23:14N 53°10' E 008°36'0 0.0
2015-May-18 22:30N 53°10' E 008°36'0 0.0
2015-May-18 21:30N 53°10' E 008°36'0 0.0
2015-May-18 20:31N 53°10' E 008°36'0 0.0
2015-May-18 19:32N 53°10' E 008°36'0 0.0
2015-May-18 18:32N 53°10' E 008°36'0 0.0
2015-May-18 17:33N 53°10' E 008°36'0 0.0
2015-May-18 16:19N 53°10' E 008°36'0 0.0
2015-May-18 15:25N 53°10' E 008°36'  

Dump ship's entire track history